Flight Track Log - Related Links

Times and Time Zones

All times are in EDT time to prevent confusion due to time zone crossing. See the THY2462 flight status page for this flight to view local times or setup timezone preferences in your user account.

Time Position Orientation Groundspeed Altitude Reporting Facility
EDT Latitude Longitude Course Direction KTS MPH feet Rate Location/Type
Sat 07:33:00 AM 40.6730 29.3615 126° Southeast  Level Estimated
Sat 07:34:00 AM 40.6120 29.4690 127° Southeast  Level Estimated
Sat 07:35:00 AM 40.5508 29.5763 127° Southeast  Level Estimated
Sat 07:36:00 AM 40.4895 29.6834 127° Southeast  Level Estimated
Sat 07:37:00 AM 40.4282 29.7903 127° Southeast  Level Estimated
Sat 07:38:00 AM 40.3667 29.8970 127° Southeast  Level Estimated
Sat 07:39:00 AM 40.3051 30.0035 127° Southeast  Level Estimated
Sat 07:40:00 AM 40.2435 30.1099 127° Southeast  Level Estimated
Sat 07:41:00 AM 40.1817 30.2160 127° Southeast  Level Estimated
Sat 07:42:00 AM 40.1199 30.3219 127° Southeast  Level Estimated
Sat 07:43:00 AM 40.0579 30.4277 127° Southeast  Level Estimated
Sat 07:44:00 AM 39.9959 30.5332 127° Southeast  Level Estimated
Sat 07:45:00 AM 39.9337 30.6386 128° Southeast  Level Estimated
Sat 07:46:00 AM 39.8715 30.7437 128° Southeast  Level Estimated
Sat 07:47:00 AM 39.8092 30.8487 128° Southeast  Level Estimated
Sat 07:48:00 AM 39.7467 30.9535 128° Southeast  Level Estimated
Sat 07:49:00 AM 39.6842 31.0581 128° Southeast  Level Estimated
Sat 07:50:00 AM 39.6216 31.1625 128° Southeast  Level Estimated
Sat 07:51:00 AM 39.5589 31.2667 128° Southeast  Level Estimated
Sat 07:52:00 AM 39.4961 31.3707 128° Southeast  Level Estimated
Sat 07:53:00 AM 39.4332 31.4746 128° Southeast  Level Estimated
Sat 07:54:00 AM 39.3702 31.5782 128° Southeast  Level Estimated
Sat 07:55:00 AM 39.3072 31.6817 128° Southeast  Level Estimated
Sat 07:56:00 AM 39.2440 31.7850 128° Southeast  Level Estimated
Sat 07:57:00 AM 39.1807 31.8881 128° Southeast  Level Estimated
Sat 07:58:00 AM 39.1174 31.9910 128° Southeast  Level Estimated
Sat 07:59:00 AM 39.0539 32.0937 128° Southeast  Level Estimated
Sat 08:00:00 AM 38.9904 32.1962 129° Southeast  Level Estimated
Sat 08:01:00 AM 38.9268 32.2986 129° Southeast  Level Estimated
Sat 08:02:00 AM 38.8631 32.4007 129° Southeast  Level Estimated
Sat 08:03:00 AM 38.7993 32.5027 129° Southeast  Level Estimated
Sat 08:04:00 AM 38.7354 32.6045 129° Southeast  Level Estimated
Sat 08:05:00 AM 38.6714 32.7062 129° Southeast  Level Estimated
Sat 08:06:00 AM 38.6073 32.8076 129° Southeast  Level Estimated
Sat 08:07:00 AM 38.5432 32.9089 129° Southeast  Level Estimated
Sat 08:08:00 AM 38.4790 33.0099 129° Southeast  Level Estimated
Sat 08:09:00 AM 38.4146 33.1108 129° Southeast  Level Estimated
Sat 08:10:00 AM 38.3502 33.2116 129° Southeast  Level Estimated
Sat 08:11:00 AM 38.2857 33.3121 129° Southeast  Level Estimated
Sat 08:12:00 AM 38.2211 33.4124 129° Southeast  Level Estimated
Sat 08:13:00 AM 38.1565 33.5126 129° Southeast  Level Estimated
Sat 08:14:00 AM 38.0917 33.6126 129° Southeast  Level Estimated
Sat 08:15:00 AM 38.0269 33.7125 129° Southeast  Level Estimated
Sat 08:16:00 AM 37.9620 33.8121 130° Southeast  Level Estimated
Sat 08:17:00 AM 37.8970 33.9116 130° Southeast  Level Estimated
Sat 08:18:00 AM 37.8319 34.0109 130° Southeast  Level Estimated
Sat 08:19:00 AM 37.7667 34.1100 130° Southeast  Level Estimated
Sat 08:20:00 AM 37.7015 34.2090 130° Southeast  Level Estimated
Sat 08:21:00 AM 37.6361 34.3078 130° Southeast  Level Estimated
Sat 08:22:00 AM 37.5707 34.4064 130° Southeast  Level Estimated
Sat 08:23:00 AM 37.5052 34.5048 130° Southeast  Level Estimated
Sat 08:24:00 AM 37.4396 34.6031 130° Southeast  Level Estimated
Sat 08:25:00 AM 37.3740 34.7011 130° Southeast  Level Estimated
Sat 08:26:00 AM 37.3082 34.7990 130° Southeast  Level Estimated
Sat 08:27:00 AM 37.2424 34.8968 130° Southeast  Level Estimated
Sat 08:28:00 AM 37.1765 34.9944 130° Southeast  Level Estimated
Sat 08:29:00 AM 37.1105 35.0918 130° Southeast  Level Estimated
Sat 08:30:00 AM 37.0444 35.1890 130° Southeast  Level Estimated
Sat 08:31:00 AM 36.9822 35.2804 130° Southeast  Level Estimated
Sat 08:32:00 AM 36.9822 35.2804 202° Southwest  Level Estimated
Sat 08:33:00 AM 36.9822 35.2804 202° Southwest  Level Estimated
Sat 08:34:00 AM 36.9822 35.2804 202° Southwest  Level Estimated
Sat 08:35:00 AM 36.9822 35.2804 202° Southwest  Level Estimated
Sat 08:36:00 AM 36.9822 35.2804 202° Southwest  Level Estimated
Sat 08:37:00 AM 36.9822 35.2804 202° Southwest  Level Estimated
Sat 08:38:00 AM 36.9822 35.2804 202° Southwest  Level Estimated
Sat 08:39:00 AM 36.9822 35.2804 202° Southwest  Level Estimated
Sat 08:40:00 AM 36.9822 35.2804 202° Southwest  Level Estimated
Sat 08:41:00 AM 36.9822 35.2804 202° Southwest  Level Estimated
Sat 08:42:00 AM 36.9822 35.2804 202° Southwest  Level Estimated
Sat 08:43:00 AM 36.9822 35.2804 202° Southwest  Level Estimated
Sat 08:44:00 AM 36.9822 35.2804 202° Southwest  Level Estimated
Sat 08:45:00 AM 36.9822 35.2804 202° Southwest  Level Estimated
Sat 08:46:00 AM 36.9822 35.2804 202° Southwest  Level Estimated
Sat 08:47:00 AM 36.9822 35.2804 202° Southwest  Level Estimated

Login

Don't have an account? Register now (free) for customized features, flight alerts, and more!